Overview Statistics Trail Chart Weather Telemetry Raw packets
 

This is the latest recevied weather packets stored in our database for station/object KN4AN. If no packets are shown the sender has not sent any weather packets the latest 10 day(s).

<< 4 5 6 7 8 9 10 >>
Time Temp. Humidity Pressure Rain* Wind** Luminosity Snow
1788534672 34.44° C 51% 1016.7 hPa 0 mm - 603 W/m² -
1788534368 33.89° C 53% 1016.8 hPa 0 mm - 608 W/m² -
1788534063 33.89° C 55% 1016.7 hPa 0 mm - 591 W/m² -
1788533761 33.33° C 55% 1016.7 hPa 0 mm - 586 W/m² -
1788533456 33.33° C 55% 1016.6 hPa 0 mm - 577 W/m² -
1788533152 33.33° C 56% 1016.6 hPa 0 mm - 564 W/m² -
1788532848 32.78° C 58% 1016.7 hPa 0 mm - 549 W/m² -
1788532543 32.22° C 58% 1016.7 hPa 0 mm - 536 W/m² -
1788532240 32.78° C 57% 1016.8 hPa 0 mm - 522 W/m² -
1788531936 31.67° C 61% 1016.7 hPa 0 mm - 510 W/m² -
1788531632 31.67° C 60% 1016.8 hPa 0 mm - 487 W/m² -
1788531332 31.67° C 61% 1016.9 hPa 0 mm - 475 W/m² -
1788531028 31.67° C 61% 1016.8 hPa 0 mm - 459 W/m² -
1788530728 31.67° C 60% 1016.7 hPa 0 mm - 444 W/m² -
1788530422 31.67° C 61% 1016.7 hPa 0 mm - 424 W/m² -
1788530121 30.56° C 64% 1016.7 hPa 0 mm - 409 W/m² -
1788529818 30° C 69% 1016.8 hPa 0 mm - 393 W/m² -
1788529513 30° C 67% 1016.9 hPa 0 mm - 375 W/m² -
1788529207 28.89° C 70% 1016.8 hPa 0 mm - 360 W/m² -
1788528901 28.89° C 71% 1016.8 hPa 0 mm - 346 W/m² -
1788528597 28.89° C 70% 1016.7 hPa 0 mm - 331 W/m² -
1788528292 28.89° C 71% 1016.9 hPa 0 mm - 316 W/m² -
1788527992 27.78° C 72% 1016.8 hPa 0 mm - 303 W/m² -
1788527687 27.78° C 73% 1016.8 hPa 0 mm - 288 W/m² -
1788527383 27.22° C 75% 1016.8 hPa 0 mm - 275 W/m² -

* Rain latest hour (hover to see other rain measurements)
** Current wind speed in m/s (hover to see current wind gust speed)